createdAt,value
2019-05-19T00:00:21.812Z,2.76
2019-05-19T00:05:24.337Z,2.60
2019-05-19T00:10:27.125Z,2.80
2019-05-19T00:15:29.620Z,2.74
2019-05-19T00:20:32.042Z,2.79
2019-05-19T00:25:34.682Z,2.59
2019-05-19T00:30:37.107Z,2.77
2019-05-19T00:35:39.561Z,2.94
2019-05-19T00:40:41.926Z,2.78
2019-05-19T00:45:44.458Z,2.69
2019-05-19T00:50:46.835Z,2.73
2019-05-19T00:55:49.593Z,2.82
2019-05-19T01:00:52.182Z,2.82
2019-05-19T01:05:54.799Z,3.04
2019-05-19T01:10:57.199Z,2.99
2019-05-19T01:15:59.770Z,3.16
2019-05-19T01:21:03.290Z,3.00
2019-05-19T01:26:06.174Z,3.14
2019-05-19T01:31:08.584Z,2.96
2019-05-19T01:36:11.557Z,2.78
2019-05-19T01:41:13.969Z,2.85
2019-05-19T01:46:16.445Z,2.82
2019-05-19T01:51:18.970Z,3.25
2019-05-19T01:56:21.519Z,3.05
2019-05-19T02:01:23.958Z,2.68
2019-05-19T02:06:26.364Z,3.02
2019-05-19T02:11:29.598Z,3.23
2019-05-19T02:16:32.006Z,3.33
2019-05-19T02:21:35.417Z,3.08
2019-05-19T02:26:38.253Z,3.14
2019-05-19T02:31:40.864Z,3.46
2019-05-19T02:36:43.455Z,3.21
2019-05-19T02:41:47.191Z,3.25
2019-05-19T02:46:49.560Z,3.44
2019-05-19T02:51:52.111Z,3.20
2019-05-19T02:56:55.081Z,3.26
2019-05-19T03:01:57.638Z,3.14
2019-05-19T03:07:00.078Z,3.07
2019-05-19T03:12:02.537Z,3.37
2019-05-19T03:17:05.055Z,3.27
2019-05-19T03:22:07.548Z,3.35
2019-05-19T03:27:09.975Z,3.08
2019-05-19T03:32:13.163Z,3.54
2019-05-19T03:37:14.656Z,3.42
2019-05-19T03:42:17.037Z,3.55
2019-05-19T03:47:19.827Z,3.31
2019-05-19T03:52:22.726Z,3.22
2019-05-19T03:57:25.121Z,3.74
2019-05-19T04:02:27.848Z,3.38
2019-05-19T04:07:30.315Z,3.58
2019-05-19T04:12:32.906Z,3.12
2019-05-19T04:17:35.661Z,3.23
2019-05-19T04:22:38.035Z,3.03
2019-05-19T04:27:40.939Z,2.87
2019-05-19T04:32:43.524Z,2.87
2019-05-19T04:37:46.171Z,3.29
2019-05-19T04:42:48.530Z,2.88
2019-05-19T04:47:51.598Z,2.91
2019-05-19T04:52:54.006Z,3.54
2019-05-19T04:57:58.854Z,3.24
2019-05-19T05:03:01.798Z,3.67
2019-05-19T05:08:04.787Z,3.31
2019-05-19T05:13:07.249Z,3.14
2019-05-19T05:18:09.727Z,3.04
2019-05-19T05:23:12.368Z,3.07
2019-05-19T05:28:15.187Z,2.31
2019-05-19T05:33:17.547Z,2.20
2019-05-19T05:38:20.545Z,1.97
2019-05-19T05:43:23.140Z,1.96
2019-05-19T05:48:25.817Z,2.19
2019-05-19T05:53:26.917Z,1.90
2019-05-19T05:58:29.614Z,1.90
2019-05-19T06:03:32.254Z,1.98
2019-05-19T06:08:34.936Z,2.17
2019-05-19T06:13:37.505Z,1.89
2019-05-19T06:18:40.175Z,1.90
2019-05-19T06:23:42.729Z,1.67
2019-05-19T06:28:45.362Z,1.81
2019-05-19T06:33:48.094Z,1.87
2019-05-19T06:38:50.854Z,1.67
2019-05-19T06:43:53.441Z,1.46
2019-05-19T06:48:56.104Z,1.61
2019-05-19T06:53:58.984Z,1.51
2019-05-19T06:59:02.194Z,1.46
2019-05-19T07:04:05.075Z,1.33
2019-05-19T07:09:07.831Z,1.35
2019-05-19T07:14:10.840Z,1.38
2019-05-19T07:19:14.756Z,1.33
2019-05-19T07:24:17.295Z,1.36
2019-05-19T07:29:19.743Z,1.36
2019-05-19T07:34:22.345Z,1.27
2019-05-19T07:39:25.369Z,1.41
2019-05-19T07:44:27.945Z,1.66
2019-05-19T07:49:30.408Z,1.38
2019-05-19T07:54:33.290Z,1.86
2019-05-19T07:59:35.878Z,1.45
2019-05-19T08:04:38.394Z,1.54
2019-05-19T08:09:41.059Z,1.38
2019-05-19T08:14:43.567Z,1.47
2019-05-19T08:19:46.167Z,1.29
2019-05-19T08:24:48.693Z,1.41
2019-05-19T08:29:51.679Z,1.17
2019-05-19T08:34:54.946Z,1.29
2019-05-19T08:39:57.754Z,1.21
2019-05-19T08:45:00.411Z,1.43
2019-05-19T08:50:03.279Z,1.25
2019-05-19T08:55:05.875Z,1.38
2019-05-19T09:00:08.979Z,1.37
2019-05-19T09:05:11.879Z,1.38
2019-05-19T09:10:14.728Z,1.56
2019-05-19T09:15:17.269Z,1.63
2019-05-19T09:20:20.067Z,1.56
2019-05-19T09:25:22.795Z,1.49
2019-05-19T09:30:25.718Z,1.85
2019-05-19T09:35:29.178Z,1.87
2019-05-19T09:40:31.845Z,1.90
2019-05-19T09:45:34.648Z,1.65
2019-05-19T09:50:37.259Z,1.80
2019-05-19T09:55:39.237Z,1.79
2019-05-19T10:00:41.835Z,1.82
2019-05-19T10:05:44.496Z,1.89
2019-05-19T10:10:47.438Z,1.82
2019-05-19T10:15:50.136Z,1.65
2019-05-19T10:20:52.968Z,1.73
2019-05-19T10:25:55.493Z,2.05
2019-05-19T10:30:58.501Z,1.83
2019-05-19T10:36:01.179Z,1.80
2019-05-19T10:41:03.941Z,1.63
2019-05-19T10:46:06.450Z,1.75
2019-05-19T10:51:09.344Z,1.57
2019-05-19T10:56:12.175Z,1.75
2019-05-19T11:01:14.879Z,1.85
2019-05-19T11:06:17.465Z,1.73
2019-05-19T11:11:19.942Z,1.78
2019-05-19T11:16:22.721Z,1.68
2019-05-19T11:21:25.398Z,1.73
2019-05-19T11:26:27.899Z,1.88
2019-05-19T11:31:30.587Z,1.89
2019-05-19T11:36:33.221Z,1.65
2019-05-19T11:41:35.845Z,1.82
2019-05-19T11:46:38.400Z,1.60
2019-05-19T11:51:41.307Z,1.87
2019-05-19T11:56:43.868Z,2.00
2019-05-19T12:01:46.580Z,1.85
2019-05-19T12:06:49.412Z,1.83
2019-05-19T12:11:52.197Z,1.81
2019-05-19T12:16:54.892Z,1.83
2019-05-19T12:21:58.085Z,1.72
2019-05-19T12:27:00.580Z,1.68
2019-05-19T12:32:03.235Z,2.04
2019-05-19T12:37:05.935Z,1.97
2019-05-19T12:42:08.512Z,2.30
2019-05-19T12:47:11.702Z,2.26
2019-05-19T12:52:14.253Z,2.00
2019-05-19T12:57:17.073Z,2.23
2019-05-19T13:02:19.759Z,2.04
2019-05-19T13:07:22.551Z,2.22
2019-05-19T13:12:25.352Z,2.06
2019-05-19T13:17:28.240Z,2.17
2019-05-19T13:22:30.783Z,1.94
2019-05-19T13:27:33.780Z,2.15
2019-05-19T13:32:36.325Z,2.06
2019-05-19T13:37:38.917Z,2.06
2019-05-19T13:42:41.977Z,2.61
2019-05-19T13:47:45.126Z,2.34
2019-05-19T13:52:51.242Z,2.30
2019-05-19T13:57:49.272Z,2.61
2019-05-19T14:02:52.144Z,2.05
2019-05-19T14:07:54.674Z,1.97
2019-05-19T14:12:57.591Z,2.39
2019-05-19T14:18:00.287Z,2.28
2019-05-19T14:23:03.121Z,2.43
2019-05-19T14:28:05.822Z,2.18
2019-05-19T14:33:09.369Z,2.09
2019-05-19T14:38:12.283Z,2.44
2019-05-19T14:43:20.991Z,2.35
2019-05-19T14:48:23.718Z,2.26
2019-05-19T14:53:26.376Z,2.21
2019-05-19T14:58:29.125Z,2.11
2019-05-19T15:03:31.661Z,11.85
2019-05-19T15:08:34.360Z,2.88
2019-05-19T15:13:37.051Z,2.36
2019-05-19T15:18:39.760Z,2.52
2019-05-19T15:23:42.286Z,2.22
2019-05-19T15:28:45.097Z,2.15
2019-05-19T15:33:47.735Z,3.60
2019-05-19T15:38:50.497Z,2.06
2019-05-19T15:43:55.773Z,2.34
2019-05-19T15:48:58.618Z,2.39
2019-05-19T15:54:01.263Z,2.32
2019-05-19T15:59:03.976Z,2.12
2019-05-19T16:04:06.771Z,2.46
2019-05-19T16:09:09.566Z,2.58
2019-05-19T16:14:12.220Z,2.73
2019-05-19T16:19:15.091Z,2.65
2019-05-19T16:24:17.980Z,2.63
2019-05-19T16:29:21.120Z,2.80
2019-05-19T16:34:24.363Z,2.86
2019-05-19T16:39:27.802Z,2.58
2019-05-19T16:44:30.757Z,2.57
2019-05-19T16:49:33.967Z,2.56
2019-05-19T16:54:36.522Z,2.71
2019-05-19T16:59:39.499Z,2.30
2019-05-19T17:04:42.682Z,2.43
2019-05-19T17:09:45.550Z,2.48
2019-05-19T17:14:49.082Z,2.22
2019-05-19T17:19:49.968Z,2.30
2019-05-19T17:24:52.598Z,2.34
2019-05-19T17:29:55.757Z,2.24
2019-05-19T17:34:57.131Z,2.46
2019-05-19T17:40:00.820Z,2.29
2019-05-19T17:45:03.698Z,2.29
2019-05-19T17:50:06.417Z,2.18
2019-05-19T17:55:10.039Z,2.24
2019-05-19T18:00:11.232Z,2.10
2019-05-19T18:05:12.541Z,2.08
2019-05-19T18:10:15.434Z,2.10
2019-05-19T18:15:18.487Z,2.44
2019-05-19T18:20:23.893Z,2.12
2019-05-19T18:25:23.797Z,2.47
2019-05-19T18:30:26.536Z,1.98
2019-05-19T18:35:31.035Z,2.32
2019-05-19T18:40:33.940Z,2.58
2019-05-19T18:45:36.549Z,2.55
2019-05-19T18:50:39.723Z,2.75
2019-05-19T18:55:43.374Z,2.53
2019-05-19T19:00:46.533Z,3.18
2019-05-19T19:05:49.908Z,2.96
2019-05-19T19:10:54.354Z,3.11
2019-05-19T19:15:56.987Z,3.34
2019-05-19T19:20:59.799Z,3.73
2019-05-19T19:26:02.313Z,4.42
2019-05-19T19:31:05.797Z,3.40
2019-05-19T19:36:08.322Z,3.41
2019-05-19T19:41:11.200Z,3.50
2019-05-19T19:46:14.046Z,3.07
2019-05-19T19:51:16.540Z,3.70
2019-05-19T19:56:19.229Z,3.83
2019-05-19T20:01:23.043Z,3.64
2019-05-19T20:06:26.554Z,3.74
2019-05-19T20:11:29.148Z,3.72
2019-05-19T20:16:31.688Z,3.72
2019-05-19T20:21:34.224Z,3.87
2019-05-19T20:26:36.949Z,3.72
2019-05-19T20:31:39.611Z,4.68
2019-05-19T20:36:42.246Z,3.72
2019-05-19T20:41:45.177Z,4.12
2019-05-19T20:46:47.767Z,4.01
2019-05-19T20:51:50.329Z,4.00
2019-05-19T20:56:53.029Z,4.18
2019-05-19T21:01:55.632Z,3.88
2019-05-19T21:06:58.165Z,3.81
2019-05-19T21:12:00.808Z,4.27
2019-05-19T21:17:03.283Z,3.99
2019-05-19T21:22:05.801Z,4.09
2019-05-19T21:27:08.476Z,4.36
2019-05-19T21:32:11.184Z,7.13
2019-05-19T21:37:13.927Z,4.64
2019-05-19T21:42:16.759Z,4.70
2019-05-19T21:47:19.642Z,4.30
2019-05-19T21:52:22.155Z,4.42
2019-05-19T21:57:24.870Z,4.46
2019-05-19T22:02:28.658Z,4.69
2019-05-19T22:07:31.358Z,4.49
2019-05-19T22:12:34.271Z,4.88
2019-05-19T22:17:36.804Z,4.61
2019-05-19T22:22:39.242Z,4.44
2019-05-19T22:27:41.846Z,4.48
2019-05-19T22:32:44.410Z,4.66
2019-05-19T22:37:46.952Z,4.51
2019-05-19T22:42:49.414Z,4.57
2019-05-19T22:47:52.163Z,4.26
2019-05-19T22:52:54.638Z,4.71
2019-05-19T22:57:57.649Z,5.01
2019-05-19T23:03:00.242Z,4.80
2019-05-19T23:08:02.943Z,4.95
2019-05-19T23:13:08.217Z,4.89
2019-05-19T23:18:07.513Z,4.57
2019-05-19T23:23:10.079Z,4.91
2019-05-19T23:28:12.614Z,4.93
2019-05-19T23:33:15.008Z,4.57
2019-05-19T23:38:17.619Z,4.40
2019-05-19T23:43:20.042Z,4.25
2019-05-19T23:48:23.799Z,4.15
2019-05-19T23:53:26.327Z,4.26
2019-05-19T23:58:28.981Z,4.21
